Pagrindinis puslapis
METAR-TAF:

METAR-TAF

Oro uostai :

Velingtonas, Naujoji Zelandija

platuma: 41-20S, ilguma: 174-48E, Aukštis: 12 m

Dabartinis oras

Ataskaita buvo paskelbta 32 minutes, ne 21:30 UTC
Vėjas 9 kt iš Šiaurės
Temperatūra 20°C
Drėgmė 43%
Slėgis 1013 hPa
Matomumas 10 km arba daugiau

METAR: NZWN 102130Z AUTO 36009KT 9999 NCD 20/07 Q1013 NOSIG

Laikas: 11:02 (22:02 UTC)

Prognozė

Ataskaita buvo paskelbta 5 valandos ir 0 minutes, ne 17:02 UTC
Prognozė galioja nuo 10 metu 18 UTC su 11 metu 18 UTC
Vėjas 5 kt iš Šiaurės/Šiaurės Rytų
Matomumas 10 km arba daugiau
Mažai debesys ne aukštis 4000 ft
Tapsmas
nuo 10 metu 22 UTC su 11 metu 00 UTC
Vėjas 10 kt iš Pietų
Tapsmas
nuo 11 metu 06 UTC su 11 metu 08 UTC
Vėjas 5 kt iš Šiaurės/Šiaurės Rytų

TAF: NZWN 101702Z 1018/1118 02005KT 9999 FEW040 BECMG 1022/1100 19010KT BECMG 1106/1108 02005KT

Orai ataskaitas ir orų prognozės (METAR, TAF).

turimą stotys yra geltonos ir raudonos taškus žemėlapyje.

Perkelti pele per norėdami pamatyti stoties vardą.

Tada spustelėkite, norėdami matyti oro stebėjimo ir prognozės.

Norėdami pakeisti žemėlapį: spustelėkite ant žalios mygtukų su juodo kryžiaus žemyn,; žalią mygtuką su brūkšneliu, jei norite nutolinti; arba žalių rodyklių gretimoms žemėlapius.


METAR-TAF: